createdAt,value
2023-03-22T00:00:00.860Z,12.78
2023-03-22T00:02:30.831Z,12.84
2023-03-22T00:04:59.065Z,12.68
2023-03-22T00:07:28.171Z,13.10
2023-03-22T00:09:56.431Z,13.08
2023-03-22T00:12:24.755Z,12.93
2023-03-22T00:14:53.752Z,12.76
2023-03-22T00:17:23.144Z,13.38
2023-03-22T00:19:54.663Z,13.51
2023-03-22T00:22:23.185Z,13.16
2023-03-22T00:24:52.482Z,12.91
2023-03-22T00:27:20.940Z,12.90
2023-03-22T00:29:49.286Z,13.19
2023-03-22T00:32:17.471Z,13.32
2023-03-22T00:34:45.751Z,13.07
2023-03-22T00:37:16.570Z,13.04
2023-03-22T00:39:45.042Z,13.21
2023-03-22T00:42:13.407Z,13.27
2023-03-22T00:44:41.876Z,13.16
2023-03-22T00:47:10.180Z,13.48
2023-03-22T00:49:38.732Z,13.51
2023-03-22T00:52:07.105Z,13.68
2023-03-22T00:54:36.878Z,13.49
2023-03-22T00:57:05.774Z,13.44
2023-03-22T00:59:38.761Z,13.52
2023-03-22T01:02:07.314Z,13.31
2023-03-22T01:04:35.783Z,13.43
2023-03-22T01:07:07.976Z,13.39
2023-03-22T01:09:37.590Z,13.41
2023-03-22T01:12:06.098Z,13.34
2023-03-22T01:14:34.430Z,13.31
2023-03-22T01:17:02.739Z,13.30
2023-03-22T01:19:31.266Z,13.30
2023-03-22T01:21:59.637Z,13.31
2023-03-22T01:24:27.876Z,13.28
2023-03-22T01:26:57.630Z,13.18
2023-03-22T01:29:26.835Z,12.95
2023-03-22T01:31:55.115Z,12.30
2023-03-22T01:34:23.581Z,11.80
2023-03-22T01:36:51.869Z,11.96
2023-03-22T01:39:20.189Z,12.35
2023-03-22T01:41:48.442Z,12.20
2023-03-22T01:44:19.796Z,11.88
2023-03-22T01:46:49.468Z,12.00
2023-03-22T01:49:23.849Z,11.92
2023-03-22T01:51:55.434Z,11.82
2023-03-22T01:54:28.234Z,11.57
2023-03-22T01:56:56.734Z,11.36
2023-03-22T01:59:26.676Z,11.23
2023-03-22T02:01:55.522Z,11.41
2023-03-22T02:04:34.358Z,11.61
2023-03-22T02:07:09.781Z,11.74
2023-03-22T02:09:42.406Z,11.83
2023-03-22T02:12:23.248Z,11.93
2023-03-22T02:15:05.836Z,11.98
2023-03-22T02:17:46.770Z,11.98
2023-03-22T02:20:55.309Z,11.34
2023-03-22T02:24:07.015Z,11.21
2023-03-22T02:27:06.764Z,11.57
2023-03-22T02:29:45.155Z,11.40
2023-03-22T02:32:49.136Z,11.35
2023-03-22T02:35:35.171Z,11.99
2023-03-22T02:38:37.946Z,12.05
2023-03-22T02:41:15.728Z,12.00
2023-03-22T02:43:53.509Z,12.30
2023-03-22T02:46:26.334Z,12.09
2023-03-22T02:49:02.951Z,12.23
2023-03-22T02:51:35.794Z,12.21
2023-03-22T02:54:09.493Z,12.34
2023-03-22T02:56:46.023Z,12.51
2023-03-22T02:59:15.524Z,12.55
2023-03-22T03:01:47.892Z,12.02
2023-03-22T03:04:20.700Z,12.49
2023-03-22T03:06:51.972Z,12.48
2023-03-22T03:09:22.588Z,12.49
2023-03-22T03:11:54.105Z,12.32
2023-03-22T03:14:24.261Z,11.58
2023-03-22T03:17:05.133Z,12.22
2023-03-22T03:19:39.624Z,12.01
2023-03-22T03:22:23.280Z,11.73
2023-03-22T03:25:03.500Z,11.54
2023-03-22T03:27:39.467Z,11.53
2023-03-22T03:30:13.883Z,11.48
2023-03-22T03:32:46.240Z,11.13
2023-03-22T03:35:23.502Z,10.31
2023-03-22T03:37:57.777Z,11.21
2023-03-22T03:40:31.159Z,11.29
2023-03-22T03:43:03.997Z,11.36
2023-03-22T03:45:32.529Z,11.44
2023-03-22T03:48:04.337Z,11.65
2023-03-22T03:50:33.019Z,11.57
2023-03-22T03:53:01.626Z,11.21
2023-03-22T03:55:30.900Z,11.15
2023-03-22T03:58:00.569Z,11.19
2023-03-22T04:00:29.036Z,10.80
2023-03-22T04:02:57.329Z,10.15
2023-03-22T04:05:25.660Z,10.58
2023-03-22T04:07:53.950Z,10.13
2023-03-22T04:10:22.298Z,10.27
2023-03-22T04:12:50.550Z,10.46
2023-03-22T04:15:20.341Z,10.58
2023-03-22T04:17:48.720Z,10.45
2023-03-22T04:20:17.213Z,10.58
2023-03-22T04:22:47.007Z,10.84
2023-03-22T04:25:18.365Z,11.11
2023-03-22T04:27:51.095Z,10.96
2023-03-22T04:30:22.078Z,11.41
2023-03-22T04:32:50.878Z,11.44
2023-03-22T04:35:19.285Z,11.54
2023-03-22T04:37:49.044Z,11.59
2023-03-22T04:40:17.538Z,11.61
2023-03-22T04:42:46.226Z,11.79
2023-03-22T04:45:15.589Z,11.78
2023-03-22T04:47:45.398Z,11.80
2023-03-22T04:50:13.771Z,11.85
2023-03-22T04:52:42.258Z,11.83
2023-03-22T04:55:10.859Z,11.89
2023-03-22T04:57:39.168Z,11.92
2023-03-22T05:00:10.413Z,11.96
2023-03-22T05:02:41.423Z,12.04
2023-03-22T05:05:14.112Z,11.67
2023-03-22T05:07:42.441Z,12.10
2023-03-22T05:10:11.600Z,12.19
2023-03-22T05:12:39.931Z,12.34
2023-03-22T05:15:09.857Z,12.37
2023-03-22T05:17:38.075Z,12.41
2023-03-22T05:20:10.241Z,12.45
2023-03-22T05:22:41.092Z,12.35
2023-03-22T05:25:11.981Z,12.46
2023-03-22T05:27:40.322Z,12.56
2023-03-22T05:30:10.105Z,12.64
2023-03-22T05:32:43.167Z,12.50
2023-03-22T05:35:12.208Z,12.57
2023-03-22T05:37:41.986Z,12.62
2023-03-22T05:40:11.132Z,12.65
2023-03-22T05:42:39.511Z,12.61
2023-03-22T05:45:08.971Z,12.21
2023-03-22T05:47:39.572Z,12.28
2023-03-22T05:50:09.561Z,12.14
2023-03-22T05:52:37.882Z,12.08
2023-03-22T05:55:08.894Z,12.22
2023-03-22T05:57:37.168Z,12.48
2023-03-22T06:00:11.265Z,12.68
2023-03-22T06:02:39.580Z,12.68
2023-03-22T06:05:09.504Z,12.33
2023-03-22T06:07:37.966Z,12.10
2023-03-22T06:10:10.316Z,11.92
2023-03-22T06:12:38.699Z,12.02
2023-03-22T06:15:08.926Z,12.00
2023-03-22T06:17:37.962Z,11.37
2023-03-22T06:20:10.557Z,10.97
2023-03-22T06:22:39.957Z,11.07
2023-03-22T06:25:11.700Z,11.21
2023-03-22T06:27:39.988Z,11.34
2023-03-22T06:30:09.635Z,11.31
2023-03-22T06:32:37.948Z,11.83
2023-03-22T06:35:07.012Z,12.00
2023-03-22T06:37:35.413Z,12.37
2023-03-22T06:40:03.882Z,12.65
2023-03-22T06:42:33.981Z,11.76
2023-03-22T06:45:02.359Z,12.75
2023-03-22T06:47:30.723Z,12.82
2023-03-22T06:49:59.308Z,12.97
2023-03-22T06:52:27.679Z,13.06
2023-03-22T06:54:56.934Z,13.70
2023-03-22T06:57:25.236Z,13.38
2023-03-22T06:59:54.969Z,13.14
2023-03-22T07:02:23.242Z,13.11
2023-03-22T07:04:51.603Z,12.83
2023-03-22T07:07:19.925Z,12.83
2023-03-22T07:09:48.246Z,13.07
2023-03-22T07:12:16.972Z,13.00
2023-03-22T07:14:45.484Z,13.07
2023-03-22T07:17:15.801Z,13.47
2023-03-22T07:19:45.132Z,13.95
2023-03-22T07:22:13.364Z,14.38
2023-03-22T07:24:50.525Z,14.70
2023-03-22T07:27:24.748Z,14.36
2023-03-22T07:29:53.192Z,14.40
2023-03-22T07:32:22.907Z,14.96
2023-03-22T07:34:51.202Z,15.70
2023-03-22T07:37:19.470Z,16.05
2023-03-22T07:39:47.767Z,16.16
2023-03-22T07:42:16.071Z,16.35
2023-03-22T07:44:44.455Z,15.93
2023-03-22T07:47:12.785Z,14.98
2023-03-22T07:49:42.561Z,15.08
2023-03-22T07:52:10.848Z,15.15
2023-03-22T07:54:39.236Z,15.25
2023-03-22T07:57:08.258Z,15.00
2023-03-22T07:59:39.264Z,15.19
2023-03-22T08:02:08.892Z,14.84
2023-03-22T08:04:37.405Z,14.77
2023-03-22T08:07:10.112Z,15.27
2023-03-22T08:09:38.800Z,15.57
2023-03-22T08:12:07.632Z,15.40
2023-03-22T08:14:37.353Z,15.73
2023-03-22T08:17:06.281Z,15.68
2023-03-22T08:19:34.842Z,15.57
2023-03-22T08:22:03.790Z,15.80
2023-03-22T08:24:33.706Z,15.43
2023-03-22T08:27:02.445Z,15.34
2023-03-22T08:29:30.875Z,15.34
2023-03-22T08:32:02.515Z,15.49
2023-03-22T08:34:31.598Z,15.12
2023-03-22T08:36:59.881Z,15.46
2023-03-22T08:39:28.291Z,15.35
2023-03-22T08:41:57.965Z,15.48
2023-03-22T08:44:27.132Z,15.32
2023-03-22T08:46:56.086Z,15.62
2023-03-22T08:49:24.718Z,15.43
2023-03-22T08:51:53.095Z,15.72
2023-03-22T08:54:21.778Z,15.78
2023-03-22T08:56:50.407Z,15.99
2023-03-22T08:59:20.174Z,15.80
2023-03-22T09:01:48.611Z,15.46
2023-03-22T09:04:16.952Z,15.66
2023-03-22T09:06:47.144Z,15.70
2023-03-22T09:09:15.970Z,15.44
2023-03-22T09:11:44.961Z,14.90
2023-03-22T09:14:13.452Z,14.96
2023-03-22T09:16:43.122Z,15.70
2023-03-22T09:19:11.649Z,15.66
2023-03-22T09:21:39.976Z,15.93
2023-03-22T09:24:08.967Z,15.51
2023-03-22T09:26:37.924Z,16.02
2023-03-22T09:29:06.231Z,16.57
2023-03-22T09:31:34.543Z,16.14
2023-03-22T09:34:04.313Z,17.35
2023-03-22T09:36:32.934Z,17.77
2023-03-22T09:39:02.596Z,18.81
2023-03-22T09:41:38.343Z,18.68
2023-03-22T09:44:09.553Z,19.01
2023-03-22T09:46:42.131Z,19.15
2023-03-22T09:49:18.409Z,18.64
2023-03-22T09:51:48.711Z,18.12
2023-03-22T09:54:21.657Z,19.00
2023-03-22T09:56:55.388Z,19.33
2023-03-22T09:59:31.931Z,19.69
2023-03-22T10:02:02.649Z,18.36
2023-03-22T10:04:52.532Z,19.08
2023-03-22T10:07:28.774Z,18.29
2023-03-22T10:10:09.126Z,18.35
2023-03-22T10:12:44.491Z,19.67
2023-03-22T10:15:16.303Z,21.12
2023-03-22T10:17:46.961Z,21.49
2023-03-22T10:20:29.125Z,22.61
2023-03-22T10:23:00.121Z,22.96
2023-03-22T10:25:34.790Z,21.98
2023-03-22T10:28:03.736Z,21.89
2023-03-22T10:30:38.904Z,21.92
2023-03-22T10:33:15.361Z,22.56
2023-03-22T10:35:45.477Z,23.08
2023-03-22T10:38:22.352Z,23.88
2023-03-22T10:40:51.642Z,23.78
2023-03-22T10:43:24.261Z,22.28
2023-03-22T10:45:55.246Z,21.55
2023-03-22T10:48:29.249Z,21.31
2023-03-22T10:51:00.622Z,19.68
2023-03-22T10:53:37.867Z,19.70
2023-03-22T10:56:11.239Z,20.25
2023-03-22T10:58:39.782Z,20.40
2023-03-22T11:01:11.787Z,19.75
2023-03-22T11:03:42.818Z,20.10
2023-03-22T11:06:15.189Z,19.83
2023-03-22T11:08:47.461Z,19.74
2023-03-22T11:11:23.560Z,19.44
2023-03-22T11:14:01.183Z,19.14
2023-03-22T11:16:30.843Z,19.52
2023-03-22T11:19:02.261Z,19.62
2023-03-22T11:21:34.483Z,18.45
2023-03-22T11:24:06.952Z,18.95
2023-03-22T11:26:40.691Z,19.90
2023-03-22T11:29:15.817Z,20.23
2023-03-22T11:31:55.818Z,20.39
2023-03-22T11:34:27.838Z,21.05
2023-03-22T11:37:01.031Z,20.46
2023-03-22T11:39:30.883Z,20.55
2023-03-22T11:42:01.679Z,20.45
2023-03-22T11:44:35.607Z,20.59
2023-03-22T11:47:05.895Z,20.55
2023-03-22T11:49:41.493Z,20.00
2023-03-22T11:52:16.757Z,19.24
2023-03-22T11:54:47.481Z,18.84
2023-03-22T11:57:19.265Z,19.08
2023-03-22T11:59:51.508Z,18.80
2023-03-22T12:02:26.903Z,19.22
2023-03-22T12:05:01.977Z,18.98
2023-03-22T12:07:34.043Z,18.95
2023-03-22T12:10:06.389Z,19.19
2023-03-22T12:12:38.684Z,19.51
2023-03-22T12:15:14.681Z,19.93
2023-03-22T12:17:47.067Z,21.45
2023-03-22T12:20:23.032Z,22.04
2023-03-22T12:22:55.955Z,22.45
2023-03-22T12:25:27.231Z,22.11
2023-03-22T12:27:58.511Z,21.11
2023-03-22T12:30:31.286Z,19.97
2023-03-22T12:33:04.878Z,20.20
2023-03-22T12:35:36.376Z,19.85
2023-03-22T12:38:17.676Z,20.06
2023-03-22T12:40:46.560Z,19.89
2023-03-22T12:43:20.252Z,19.80
2023-03-22T12:45:53.549Z,19.92
2023-03-22T12:48:29.096Z,20.00
2023-03-22T12:51:01.953Z,19.73
2023-03-22T12:53:36.302Z,19.72
2023-03-22T12:56:05.030Z,19.44
2023-03-22T12:58:33.362Z,19.71
2023-03-22T13:01:14.032Z,19.77
2023-03-22T13:03:48.028Z,19.45
2023-03-22T13:06:33.034Z,19.55
2023-03-22T13:09:16.346Z,19.85
2023-03-22T13:11:46.838Z,19.22
2023-03-22T13:14:58.927Z,19.77
2023-03-22T13:17:42.699Z,19.92
2023-03-22T13:20:28.891Z,20.23
2023-03-22T13:23:16.000Z,19.99
2023-03-22T13:26:05.245Z,19.62
2023-03-22T13:28:37.546Z,19.21
2023-03-22T13:31:06.839Z,19.22
2023-03-22T13:33:38.964Z,18.31
2023-03-22T13:36:23.914Z,18.36
2023-03-22T13:38:56.315Z,18.14
2023-03-22T13:41:29.957Z,17.46
2023-03-22T13:43:59.590Z,17.26
2023-03-22T13:46:50.870Z,17.67
2023-03-22T13:49:42.204Z,17.97
2023-03-22T13:52:23.437Z,17.86
2023-03-22T13:54:54.304Z,16.91
2023-03-22T13:57:57.042Z,18.06
2023-03-22T14:00:39.664Z,17.49
2023-03-22T14:03:16.821Z,17.60
2023-03-22T14:05:48.558Z,17.72
2023-03-22T14:08:24.677Z,17.33
2023-03-22T14:10:59.734Z,16.94
2023-03-22T14:13:33.314Z,16.93
2023-03-22T14:16:10.004Z,17.44
2023-03-22T14:18:43.419Z,17.43
2023-03-22T14:21:16.936Z,17.41
